createdAt,value
2018-11-25T00:00:12.488Z,79.80
2018-11-25T00:05:16.056Z,86.93
2018-11-25T00:10:19.630Z,75.97
2018-11-25T00:15:23.582Z,87.37
2018-11-25T00:20:27.070Z,85.00
2018-11-25T00:25:30.634Z,88.73
2018-11-25T00:30:34.337Z,88.50
2018-11-25T00:35:38.035Z,88.80
2018-11-25T00:40:41.563Z,85.87
2018-11-25T00:45:44.994Z,96.53
2018-11-25T00:50:48.567Z,83.90
2018-11-25T00:55:52.212Z,90.47
2018-11-25T01:00:55.774Z,87.33
2018-11-25T01:05:59.280Z,90.23
2018-11-25T01:11:02.727Z,88.43
2018-11-25T01:16:06.500Z,97.07
2018-11-25T01:21:10.038Z,93.67
2018-11-25T01:26:13.646Z,102.67
2018-11-25T01:31:17.248Z,97.33
2018-11-25T01:36:20.766Z,100.50
2018-11-25T01:41:24.318Z,106.97
2018-11-25T01:46:27.819Z,98.43
2018-11-25T01:51:31.251Z,110.30
2018-11-25T01:56:34.798Z,101.10
2018-11-25T02:01:38.380Z,99.70
2018-11-25T02:06:41.877Z,95.23
2018-11-25T02:11:45.346Z,101.33
2018-11-25T02:16:48.832Z,110.43
2018-11-25T02:21:53.144Z,104.20
2018-11-25T02:26:56.580Z,115.37
2018-11-25T02:32:00.146Z,109.47
2018-11-25T02:37:03.927Z,109.27
2018-11-25T02:42:07.595Z,104.53
2018-11-25T02:47:11.092Z,120.30
2018-11-25T02:52:14.548Z,118.77
2018-11-25T02:57:22.915Z,133.33
2018-11-25T03:02:26.586Z,130.40
2018-11-25T03:07:33.283Z,122.10
2018-11-25T03:12:36.741Z,128.10
2018-11-25T03:17:40.279Z,122.80
2018-11-25T03:22:43.816Z,133.90
2018-11-25T03:27:47.448Z,130.77
2018-11-25T03:32:52.641Z,130.97
2018-11-25T03:37:56.137Z,127.07
2018-11-25T03:42:59.690Z,138.00
2018-11-25T03:48:03.482Z,136.67
2018-11-25T03:53:07.009Z,131.80
2018-11-25T03:58:10.465Z,124.83
2018-11-25T04:03:14.127Z,133.87
2018-11-25T04:08:17.653Z,129.90
2018-11-25T04:13:21.077Z,131.10
2018-11-25T04:18:27.585Z,129.60
2018-11-25T04:23:31.192Z,126.77
2018-11-25T04:28:35.054Z,122.47
2018-11-25T04:33:38.632Z,124.20
2018-11-25T04:38:42.308Z,120.77
2018-11-25T04:43:45.785Z,114.13
2018-11-25T04:48:49.396Z,129.87
2018-11-25T04:53:52.974Z,124.87
2018-11-25T04:58:56.553Z,122.10
2018-11-25T05:04:00.177Z,127.43
2018-11-25T05:09:05.487Z,118.40
2018-11-25T05:14:09.130Z,109.80
2018-11-25T05:19:12.625Z,128.80
2018-11-25T05:24:16.262Z,113.80
2018-11-25T05:29:19.803Z,119.37
2018-11-25T05:34:23.346Z,132.10
2018-11-25T05:39:26.901Z,117.67
2018-11-25T05:44:30.403Z,123.13
2018-11-25T05:49:36.691Z,124.70
2018-11-25T05:54:37.396Z,126.10
2018-11-25T05:59:40.826Z,125.50
2018-11-25T06:04:44.440Z,124.37
2018-11-25T06:09:47.981Z,132.67
2018-11-25T06:14:51.672Z,123.83
2018-11-25T06:19:55.144Z,115.87
2018-11-25T06:24:58.674Z,115.47
2018-11-25T06:30:02.174Z,119.20
2018-11-25T06:35:07.929Z,126.63
2018-11-25T06:40:17.728Z,114.67
2018-11-25T06:45:29.801Z,117.33
2018-11-25T06:50:33.371Z,124.70
2018-11-25T06:55:37.327Z,119.90
2018-11-25T07:00:40.912Z,112.23
2018-11-25T07:05:44.902Z,118.00
2018-11-25T07:10:48.399Z,122.00
2018-11-25T07:15:51.888Z,121.90
2018-11-25T07:20:55.412Z,121.77
2018-11-25T07:25:58.910Z,120.60
2018-11-25T07:31:02.352Z,120.50
2018-11-25T07:36:06.681Z,118.27
2018-11-25T07:41:10.126Z,122.83
2018-11-25T07:46:13.627Z,120.03
2018-11-25T07:51:17.157Z,116.53
2018-11-25T07:56:20.902Z,125.03
2018-11-25T08:01:24.418Z,117.07
2018-11-25T08:06:28.296Z,124.27
2018-11-25T08:11:32.086Z,121.83
2018-11-25T08:16:35.709Z,133.23
2018-11-25T08:21:39.389Z,136.93
2018-11-25T08:26:42.950Z,120.80
2018-11-25T08:31:46.522Z,123.50
2018-11-25T08:36:50.019Z,127.10
2018-11-25T08:41:53.553Z,129.33
2018-11-25T08:46:57.192Z,135.23
2018-11-25T08:52:00.671Z,124.27
2018-11-25T08:57:04.236Z,142.00
2018-11-25T09:02:07.822Z,138.23
2018-11-25T09:07:11.385Z,133.63
2018-11-25T09:12:15.325Z,134.13
2018-11-25T09:17:19.137Z,133.57
2018-11-25T09:22:22.739Z,130.17
2018-11-25T09:27:26.334Z,126.73
2018-11-25T09:32:30.215Z,134.23
2018-11-25T09:37:34.389Z,122.03
2018-11-25T09:42:38.435Z,135.53
2018-11-25T09:47:42.558Z,124.57
2018-11-25T09:52:46.139Z,123.47
2018-11-25T09:57:55.412Z,113.40
2018-11-25T10:02:58.932Z,113.03
2018-11-25T10:08:02.715Z,108.40
2018-11-25T10:13:06.322Z,99.63
2018-11-25T10:18:10.249Z,108.07
2018-11-25T10:23:13.750Z,101.93
2018-11-25T10:28:17.540Z,88.87
2018-11-25T10:33:22.628Z,91.33
2018-11-25T10:38:26.496Z,90.53
2018-11-25T10:43:30.478Z,77.10
2018-11-25T10:48:34.301Z,70.67
2018-11-25T10:53:38.004Z,73.07
2018-11-25T10:58:41.806Z,70.37
2018-11-25T11:03:51.330Z,62.13
2018-11-25T11:08:55.089Z,71.10
2018-11-25T11:13:58.645Z,64.07
2018-11-25T11:19:02.140Z,70.70
2018-11-25T11:24:06.271Z,70.13
2018-11-25T11:29:09.879Z,71.10
2018-11-25T11:34:13.326Z,76.03
2018-11-25T11:39:16.898Z,80.13
2018-11-25T11:44:20.464Z,72.60
2018-11-25T11:49:23.938Z,76.33
2018-11-25T11:54:27.428Z,85.23
2018-11-25T11:59:30.916Z,86.47
2018-11-25T12:04:34.433Z,82.97
2018-11-25T12:09:38.013Z,95.60
2018-11-25T12:14:41.480Z,85.07
2018-11-25T12:19:45.053Z,83.53
2018-11-25T12:24:48.497Z,97.07
2018-11-25T12:29:52.342Z,88.30
2018-11-25T12:34:55.794Z,102.67
2018-11-25T12:39:59.333Z,94.40
2018-11-25T12:45:02.822Z,98.87
2018-11-25T12:50:10.429Z,108.47
2018-11-25T12:55:17.421Z,111.40
2018-11-25T13:00:31.213Z,111.30
2018-11-25T13:05:34.809Z,102.90
2018-11-25T13:10:38.376Z,110.23
2018-11-25T13:15:42.117Z,104.43
2018-11-25T13:20:45.580Z,106.43
2018-11-25T13:25:49.190Z,107.23
2018-11-25T13:30:52.725Z,107.10
2018-11-25T13:35:56.238Z,105.47
2018-11-25T13:40:59.993Z,100.87
2018-11-25T13:46:03.581Z,95.20
2018-11-25T13:51:08.870Z,101.63
2018-11-25T13:56:12.348Z,101.47
2018-11-25T14:01:16.012Z,96.33
2018-11-25T14:06:19.612Z,92.27
2018-11-25T14:11:23.066Z,94.17
2018-11-25T14:16:26.768Z,89.03
2018-11-25T14:21:31.520Z,93.87
2018-11-25T14:26:55.731Z,90.97
2018-11-25T14:31:59.205Z,84.93
2018-11-25T14:37:02.837Z,80.60
2018-11-25T14:42:06.394Z,78.60
2018-11-25T14:47:10.715Z,84.97
2018-11-25T14:52:14.245Z,85.77
2018-11-25T14:57:17.879Z,88.43
2018-11-25T15:02:21.489Z,87.73
2018-11-25T15:07:25.605Z,84.30
2018-11-25T15:12:29.097Z,91.23
2018-11-25T15:17:32.553Z,81.80
2018-11-25T15:22:36.098Z,86.67
2018-11-25T15:27:39.599Z,87.60
2018-11-25T15:32:43.180Z,87.03
2018-11-25T15:37:48.981Z,87.43
2018-11-25T15:42:52.833Z,81.27
2018-11-25T15:48:06.905Z,88.60
2018-11-25T15:53:11.280Z,87.07
2018-11-25T15:58:14.898Z,83.13
2018-11-25T16:03:18.377Z,89.20
2018-11-25T16:08:23.093Z,84.23
2018-11-25T16:13:26.576Z,85.33
2018-11-25T16:18:30.155Z,97.93
2018-11-25T16:23:33.784Z,93.13
2018-11-25T16:28:40.313Z,89.83
2018-11-25T16:33:43.889Z,95.33
2018-11-25T16:38:47.568Z,86.90
2018-11-25T16:43:51.699Z,90.57
2018-11-25T16:48:55.233Z,86.30
2018-11-25T16:53:58.821Z,95.93
2018-11-25T16:59:02.348Z,91.10
2018-11-25T17:04:06.284Z,92.67
2018-11-25T17:09:11.873Z,86.47
2018-11-25T17:14:15.441Z,97.30
2018-11-25T17:19:19.012Z,80.83
2018-11-25T17:24:22.815Z,87.60
2018-11-25T17:29:26.295Z,84.43
2018-11-25T17:34:29.836Z,87.57
2018-11-25T17:39:33.317Z,94.30
2018-11-25T17:44:36.979Z,87.37
2018-11-25T17:49:40.491Z,96.37
2018-11-25T17:54:45.084Z,89.13
2018-11-25T17:59:48.818Z,87.30
2018-11-25T18:04:52.628Z,85.10
2018-11-25T18:09:56.255Z,84.43
2018-11-25T18:14:59.942Z,77.07
2018-11-25T18:20:04.338Z,82.43
2018-11-25T18:25:08.076Z,74.83
2018-11-25T18:30:15.640Z,79.67
2018-11-25T18:35:19.150Z,74.73
2018-11-25T18:40:22.771Z,75.83
2018-11-25T18:45:26.508Z,73.17
2018-11-25T18:50:30.032Z,79.43
2018-11-25T18:55:31.811Z,74.80
2018-11-25T19:00:47.030Z,68.27
2018-11-25T19:05:50.614Z,62.67
2018-11-25T19:10:54.162Z,64.87
2018-11-25T19:15:58.208Z,65.87
2018-11-25T19:21:01.748Z,62.07
2018-11-25T19:26:06.231Z,62.53
2018-11-25T19:31:09.705Z,59.87
2018-11-25T19:36:13.233Z,62.23
2018-11-25T19:41:16.697Z,53.70
2018-11-25T19:46:21.208Z,51.73
2018-11-25T19:51:24.747Z,56.70
2018-11-25T19:56:28.254Z,56.57
2018-11-25T20:01:31.930Z,53.43
2018-11-25T20:06:35.805Z,56.00
2018-11-25T20:11:39.321Z,51.33
2018-11-25T20:16:48.468Z,56.47
2018-11-25T20:21:57.794Z,57.50
2018-11-25T20:27:08.249Z,51.33
2018-11-25T20:32:17.413Z,53.03
2018-11-25T20:37:26.751Z,50.53
2018-11-25T20:42:24.652Z,51.27
2018-11-25T20:47:28.264Z,55.97
2018-11-25T20:52:37.359Z,52.97
2018-11-25T20:57:40.927Z,56.23
2018-11-25T21:02:44.584Z,57.30
2018-11-25T21:07:48.098Z,59.47
2018-11-25T21:12:54.343Z,59.40
2018-11-25T21:17:57.900Z,60.23
2018-11-25T21:23:01.326Z,60.70
2018-11-25T21:28:08.725Z,57.10
2018-11-25T21:33:12.325Z,59.03
2018-11-25T21:38:16.040Z,57.23
2018-11-25T21:43:19.765Z,57.27
2018-11-25T21:48:23.624Z,57.53
2018-11-25T21:53:27.169Z,58.27
2018-11-25T21:58:30.817Z,61.73
2018-11-25T22:03:34.596Z,59.17
2018-11-25T22:08:38.439Z,58.57
2018-11-25T22:13:42.188Z,60.13
2018-11-25T22:18:45.911Z,58.30
2018-11-25T22:23:49.457Z,57.93
2018-11-25T22:28:52.954Z,56.27
2018-11-25T22:33:56.666Z,56.80
2018-11-25T22:39:00.165Z,55.83
2018-11-25T22:44:04.828Z,51.23
2018-11-25T22:49:08.440Z,52.90
2018-11-25T22:54:12.063Z,46.07
2018-11-25T22:59:15.490Z,45.63
2018-11-25T23:05:34.437Z,45.08
2018-11-25T23:10:38.049Z,46.93
2018-11-25T23:15:41.750Z,41.83
2018-11-25T23:20:45.384Z,38.10
2018-11-25T23:25:48.960Z,37.37
2018-11-25T23:30:52.508Z,40.60
2018-11-25T23:35:55.981Z,43.07
2018-11-25T23:40:59.569Z,38.97
2018-11-25T23:46:03.579Z,39.77
2018-11-25T23:51:07.225Z,35.63
2018-11-25T23:56:10.710Z,43.27
